KPGD/PGD METAR and TAF weather

Enter ICAO airport designator
Station Type Date Time Source
KPGD METAR 2024/06/14 21:05 UTC NOAA

KPGD 142105Z 22014KT 10SM SCT023 BKN032 31/24 A2988 RMK AO2 LTG DSNT E AND NW T03110244


Station Type Date Time Source
KPGD Decoded METAR 2024/06/14 21:05 UTC NOAA

PUNTA GORDA CHARLOTTE COUNTY, FL, United States (KPGD) 26-55N 82-00W 7M
Jun 14, 2024 - 05:05 PM EDT / 2024.06.14 2105 UTC
Wind: from the SW (220 degrees) at 16 MPH (14 KT):0
Visibility: 10 mile(s):0
Sky conditions: mostly cloudy
Weather: Lightning observed
Temperature: 88.0 F (31.1 C)
Heat index: 98.6 F (37.0 C):1
Dew Point: 75.9 F (24.4 C)
Relative Humidity: 67%
Pressure (altimeter): 29.88 in. Hg (1011 hPa)
ob: KPGD 142105Z 22014KT 10SM SCT023 BKN032 31/24 A2988 RMK AO2 LTG DSNT E AND NW T03110244
cycle: 21

Station Type Date Time Source
KPGD TAF 2024/06/14 18:22 UTC NOAA